EDAH Airport Information

Runway Information
Runway 10 Length 7562 ft width 115 ft
Elevation 77 ft Threshold 0 ft Heading 106
Runway 28 Length 7562 ft Width 115 ft
Elevation 89 ft Threshold 0 ft Heading 286
Runway 10R Length 1969 ft width 98 ft
Elevation 0 ft Threshold 0 ft Heading 106
Runway 28L Length 1969 ft Width 98 ft
Elevation 0 ft Threshold 0 ft Heading 286
Airport Frequencies
Type AFIS Name BERLIN INF Frequency 132.65 MHZ
Type INFO Name INFO Frequency 132.825 MHZ
Type TWR Name TWR Frequency 132.825 MHZ
Airport Navaids
Type NDB Name Heringsdorf Frequency 330 KHZ
Airport Weather Information & NOTAM
ADDS - METARS form results

(1143 UTC 21 September 2018)
Data provider http://aviationweather.gov/metar/data/
 
METAR text: EDAH 211120Z 19014KT 160V220 CAVOK 26/13 Q1002
Conditions at: EDAH (HERINGSDORF , DE) observed 1120 UTC 21 September 2018
Temperature: 26.0°C (79°F)
Dewpoint: 13.0°C (55°F) [RH = 45%]
Pressure (altimeter): 29.59 inches Hg (1002.0 mb)
Winds: from the S (190 degrees) at 16 MPH (14 knots; 7.2 m/s)
Visibility: 6 or more miles (10+ km)
Ceiling: ceiling and visibility are OK
Clouds: unknown
Weather: no significant weather observed at this time

METAR text: EDAH 211050Z 19011KT CAVOK 26/14 Q1003
Conditions at: EDAH (HERINGSDORF , DE) observed 1050 UTC 21 September 2018
Temperature: 26.0°C (79°F)
Dewpoint: 14.0°C (57°F) [RH = 48%]
Pressure (altimeter): 29.62 inches Hg (1003.0 mb)
Winds: from the S (190 degrees) at 13 MPH (11 knots; 5.7 m/s)
Visibility: 6 or more miles (10+ km)
Ceiling: ceiling and visibility are OK
Clouds: unknown
Weather: no significant weather observed at this time

Forecast for: EDAH (HERINGSDORF , DE)
Text: TAF EDAH 211100Z 2112/2121 19015G25KT CAVOK
Forecast period: 1200 to 1700 UTC 21 September 2018
Forecast type: FROM: standard forecast or significant change
Winds: from the S (190 degrees) at 17 MPH (15 knots; 7.7 m/s)
gusting to 29 MPH (25 knots; 12.9 m/s)
Visibility: 6 or more miles 10+ km)
Ceiling: unknown
Clouds: missing
Weather: NSW  (no significant weather)
Text: TEMPO 2114/2117 27020G40KT SHRA BKN014 BKN030CB
Forecast period: 1400 to 1700 UTC 21 September 2018
Forecast type: TEMPORARY: The following changes expected for less than half the time period
Winds: from the W (270 degrees) at 23 MPH (20 knots; 10.3 m/s)
gusting to 46 MPH (40 knots; 20.6 m/s)
Visibility: missing
Ceiling: 1400 feet AGL
Clouds: broken clouds at 1400 feet AGL
broken clouds at 3000 feet AGL
Weather: SHRA  (rain showers)
Text: BECMG 2117/2121 26013KT
Forecast period: 1700 to 2100 UTC 21 September 2018
Forecast type: BECOMING: Conditions expected to become as follows by 2100 UTC 21 September 2018
Winds: from the W (260 degrees) at 15 MPH (13 knots; 6.7 m/s)
Visibility: 6 or more miles 10+ km)
Ceiling: unknown
Clouds: missing
Weather: NSW  (no significant weather)